sensor_id;sensor_type;location;lat;lon;timestamp;temperature;humidity
20560;DHT22;10438;51.454;6.718;2022-10-16T00:01:31;14.10;99.90
20560;DHT22;10438;51.454;6.718;2022-10-16T00:03:58;14.00;99.90
20560;DHT22;10438;51.454;6.718;2022-10-16T00:06:25;14.00;99.90
20560;DHT22;10438;51.454;6.718;2022-10-16T00:08:51;14.00;99.90
20560;DHT22;10438;51.454;6.718;2022-10-16T00:11:29;14.00;99.90
20560;DHT22;10438;51.454;6.718;2022-10-16T00:13:58;14.00;99.90
20560;DHT22;10438;51.454;6.718;2022-10-16T00:16:24;14.00;99.90
20560;DHT22;10438;51.454;6.718;2022-10-16T00:18:50;13.90;99.90
20560;DHT22;10438;51.454;6.718;2022-10-16T00:21:18;13.90;99.90
20560;DHT22;10438;51.454;6.718;2022-10-16T00:23:44;13.90;99.90
20560;DHT22;10438;51.454;6.718;2022-10-16T00:26:13;13.90;99.90
20560;DHT22;10438;51.454;6.718;2022-10-16T00:28:39;13.90;99.90
20560;DHT22;10438;51.454;6.718;2022-10-16T00:31:08;13.90;99.90
20560;DHT22;10438;51.454;6.718;2022-10-16T00:33:35;13.90;99.90
20560;DHT22;10438;51.454;6.718;2022-10-16T00:36:03;13.90;99.90
20560;DHT22;10438;51.454;6.718;2022-10-16T00:38:28;13.90;99.90
20560;DHT22;10438;51.454;6.718;2022-10-16T00:40:54;13.90;99.90
20560;DHT22;10438;51.454;6.718;2022-10-16T00:43:47;13.90;99.90
20560;DHT22;10438;51.454;6.718;2022-10-16T00:46:31;13.90;99.90
20560;DHT22;10438;51.454;6.718;2022-10-16T00:49:04;14.00;99.90
20560;DHT22;10438;51.454;6.718;2022-10-16T00:51:35;14.00;99.90
20560;DHT22;10438;51.454;6.718;2022-10-16T00:54:03;14.00;99.90
20560;DHT22;10438;51.454;6.718;2022-10-16T00:56:29;13.90;99.90
20560;DHT22;10438;51.454;6.718;2022-10-16T00:58:55;14.00;99.90
20560;DHT22;10438;51.454;6.718;2022-10-16T01:01:21;13.90;99.90
20560;DHT22;10438;51.454;6.718;2022-10-16T01:03:47;13.90;99.90
20560;DHT22;10438;51.454;6.718;2022-10-16T01:06:27;13.90;99.90
20560;DHT22;10438;51.454;6.718;2022-10-16T01:09:06;13.90;99.90
20560;DHT22;10438;51.454;6.718;2022-10-16T01:11:41;13.80;99.90
20560;DHT22;10438;51.454;6.718;2022-10-16T01:14:19;13.80;99.90
20560;DHT22;10438;51.454;6.718;2022-10-16T01:17:28;13.80;99.90
20560;DHT22;10438;51.454;6.718;2022-10-16T01:20:08;13.80;99.90
20560;DHT22;10438;51.454;6.718;2022-10-16T01:22:56;13.80;99.90
20560;DHT22;10438;51.454;6.718;2022-10-16T01:25:37;13.70;99.90
20560;DHT22;10438;51.454;6.718;2022-10-16T01:28:06;13.70;99.90
20560;DHT22;10438;51.454;6.718;2022-10-16T01:30:35;13.70;99.90
20560;DHT22;10438;51.454;6.718;2022-10-16T01:33:14;13.70;99.90
20560;DHT22;10438;51.454;6.718;2022-10-16T01:35:44;13.70;99.90
20560;DHT22;10438;51.454;6.718;2022-10-16T01:40:50;13.70;99.90
20560;DHT22;10438;51.454;6.718;2022-10-16T01:43:22;13.70;99.90
20560;DHT22;10438;51.454;6.718;2022-10-16T01:45:48;13.70;99.90
20560;DHT22;10438;51.454;6.718;2022-10-16T01:48:17;13.80;99.90
20560;DHT22;10438;51.454;6.718;2022-10-16T01:50:48;13.80;99.90
20560;DHT22;10438;51.454;6.718;2022-10-16T01:53:16;13.80;99.90
20560;DHT22;10438;51.454;6.718;2022-10-16T01:55:44;13.80;99.90
20560;DHT22;10438;51.454;6.718;2022-10-16T01:58:12;13.90;99.90
20560;DHT22;10438;51.454;6.718;2022-10-16T02:00:41;13.90;99.90
20560;DHT22;10438;51.454;6.718;2022-10-16T02:03:09;13.90;99.90
20560;DHT22;10438;51.454;6.718;2022-10-16T02:05:45;14.00;99.90
20560;DHT22;10438;51.454;6.718;2022-10-16T02:08:11;14.00;99.90
20560;DHT22;10438;51.454;6.718;2022-10-16T02:10:38;13.90;99.90
20560;DHT22;10438;51.454;6.718;2022-10-16T02:13:08;14.00;99.90
20560;DHT22;10438;51.454;6.718;2022-10-16T02:15:34;14.00;99.90
20560;DHT22;10438;51.454;6.718;2022-10-16T02:18:01;13.90;99.90
20560;DHT22;10438;51.454;6.718;2022-10-16T02:20:28;14.00;99.90
20560;DHT22;10438;51.454;6.718;2022-10-16T02:22:56;14.00;99.90
20560;DHT22;10438;51.454;6.718;2022-10-16T02:25:43;14.00;99.90
20560;DHT22;10438;51.454;6.718;2022-10-16T02:28:27;14.00;99.90
20560;DHT22;10438;51.454;6.718;2022-10-16T02:31:01;14.00;99.90
20560;DHT22;10438;51.454;6.718;2022-10-16T02:33:29;14.00;99.90
20560;DHT22;10438;51.454;6.718;2022-10-16T02:35:57;14.00;99.90
20560;DHT22;10438;51.454;6.718;2022-10-16T02:38:23;14.00;99.90
20560;DHT22;10438;51.454;6.718;2022-10-16T02:40:49;14.00;99.90
20560;DHT22;10438;51.454;6.718;2022-10-16T02:43:16;14.10;99.90
20560;DHT22;10438;51.454;6.718;2022-10-16T02:45:41;14.10;99.90
20560;DHT22;10438;51.454;6.718;2022-10-16T02:48:07;14.10;99.90
20560;DHT22;10438;51.454;6.718;2022-10-16T02:50:33;14.10;99.90
20560;DHT22;10438;51.454;6.718;2022-10-16T02:52:58;14.10;99.90
20560;DHT22;10438;51.454;6.718;2022-10-16T02:55:24;14.10;99.90
20560;DHT22;10438;51.454;6.718;2022-10-16T02:57:49;14.10;99.90
20560;DHT22;10438;51.454;6.718;2022-10-16T03:00:16;14.10;99.90
20560;DHT22;10438;51.454;6.718;2022-10-16T03:02:42;14.10;99.90
20560;DHT22;10438;51.454;6.718;2022-10-16T03:05:08;14.10;99.90
20560;DHT22;10438;51.454;6.718;2022-10-16T03:07:34;14.10;99.90
20560;DHT22;10438;51.454;6.718;2022-10-16T03:10:00;14.10;99.90
20560;DHT22;10438;51.454;6.718;2022-10-16T03:12:26;14.10;99.90
20560;DHT22;10438;51.454;6.718;2022-10-16T03:14:52;14.10;99.90
20560;DHT22;10438;51.454;6.718;2022-10-16T03:17:17;14.10;99.90
20560;DHT22;10438;51.454;6.718;2022-10-16T03:19:43;14.10;99.90
20560;DHT22;10438;51.454;6.718;2022-10-16T03:22:08;14.00;99.90
20560;DHT22;10438;51.454;6.718;2022-10-16T03:24:34;14.10;99.90
20560;DHT22;10438;51.454;6.718;2022-10-16T03:26:59;14.10;99.90
20560;DHT22;10438;51.454;6.718;2022-10-16T03:29:25;14.10;99.90
20560;DHT22;10438;51.454;6.718;2022-10-16T03:31:51;14.00;99.90
20560;DHT22;10438;51.454;6.718;2022-10-16T03:34:17;14.00;99.90
20560;DHT22;10438;51.454;6.718;2022-10-16T03:36:42;14.00;99.90
20560;DHT22;10438;51.454;6.718;2022-10-16T03:39:08;13.90;99.90
20560;DHT22;10438;51.454;6.718;2022-10-16T03:41:33;14.00;99.90
20560;DHT22;10438;51.454;6.718;2022-10-16T03:43:59;13.90;99.90
20560;DHT22;10438;51.454;6.718;2022-10-16T03:46:24;13.90;99.90
20560;DHT22;10438;51.454;6.718;2022-10-16T03:48:50;13.90;99.90
20560;DHT22;10438;51.454;6.718;2022-10-16T03:51:15;13.90;99.90
20560;DHT22;10438;51.454;6.718;2022-10-16T03:53:41;13.90;99.90
20560;DHT22;10438;51.454;6.718;2022-10-16T03:56:06;13.80;99.90
20560;DHT22;10438;51.454;6.718;2022-10-16T03:58:32;13.80;99.90
20560;DHT22;10438;51.454;6.718;2022-10-16T04:00:58;13.80;99.90
20560;DHT22;10438;51.454;6.718;2022-10-16T04:03:23;13.80;99.90
20560;DHT22;10438;51.454;6.718;2022-10-16T04:05:49;13.80;99.90
20560;DHT22;10438;51.454;6.718;2022-10-16T04:08:15;13.90;99.90
20560;DHT22;10438;51.454;6.718;2022-10-16T04:10:42;13.80;99.90
20560;DHT22;10438;51.454;6.718;2022-10-16T04:13:08;13.80;99.90
20560;DHT22;10438;51.454;6.718;2022-10-16T04:15:34;13.80;99.90
20560;DHT22;10438;51.454;6.718;2022-10-16T04:18:00;13.80;99.90
20560;DHT22;10438;51.454;6.718;2022-10-16T04:20:25;13.80;99.90
20560;DHT22;10438;51.454;6.718;2022-10-16T04:22:51;13.80;99.90
20560;DHT22;10438;51.454;6.718;2022-10-16T04:25:16;13.80;99.90
20560;DHT22;10438;51.454;6.718;2022-10-16T04:27:42;13.70;99.90
20560;DHT22;10438;51.454;6.718;2022-10-16T04:30:07;13.70;99.90
20560;DHT22;10438;51.454;6.718;2022-10-16T04:32:33;13.70;99.90
20560;DHT22;10438;51.454;6.718;2022-10-16T04:34:59;13.70;99.90
20560;DHT22;10438;51.454;6.718;2022-10-16T04:37:25;13.70;99.90
20560;DHT22;10438;51.454;6.718;2022-10-16T04:39:51;13.70;99.90
20560;DHT22;10438;51.454;6.718;2022-10-16T04:42:17;13.70;99.90
20560;DHT22;10438;51.454;6.718;2022-10-16T04:44:42;13.70;99.90
20560;DHT22;10438;51.454;6.718;2022-10-16T04:47:08;13.70;99.90
20560;DHT22;10438;51.454;6.718;2022-10-16T04:49:33;13.70;99.90
20560;DHT22;10438;51.454;6.718;2022-10-16T04:51:59;13.70;99.90
20560;DHT22;10438;51.454;6.718;2022-10-16T04:54:25;13.70;99.90
20560;DHT22;10438;51.454;6.718;2022-10-16T04:56:50;13.70;99.90
20560;DHT22;10438;51.454;6.718;2022-10-16T04:59:18;13.70;99.90
20560;DHT22;10438;51.454;6.718;2022-10-16T05:01:44;13.70;99.90
20560;DHT22;10438;51.454;6.718;2022-10-16T05:04:10;13.70;99.90
20560;DHT22;10438;51.454;6.718;2022-10-16T05:06:35;13.70;99.90
20560;DHT22;10438;51.454;6.718;2022-10-16T05:09:01;13.70;99.90
20560;DHT22;10438;51.454;6.718;2022-10-16T05:11:26;13.70;99.90
20560;DHT22;10438;51.454;6.718;2022-10-16T05:13:52;13.70;99.90
20560;DHT22;10438;51.454;6.718;2022-10-16T05:16:17;13.70;99.90
20560;DHT22;10438;51.454;6.718;2022-10-16T05:18:43;13.70;99.90
20560;DHT22;10438;51.454;6.718;2022-10-16T05:21:08;13.70;99.90
20560;DHT22;10438;51.454;6.718;2022-10-16T05:23:34;13.60;99.90
20560;DHT22;10438;51.454;6.718;2022-10-16T05:26:00;13.60;99.90
20560;DHT22;10438;51.454;6.718;2022-10-16T05:28:26;13.60;99.90
20560;DHT22;10438;51.454;6.718;2022-10-16T05:30:53;13.60;99.90
20560;DHT22;10438;51.454;6.718;2022-10-16T05:33:24;13.60;99.90
20560;DHT22;10438;51.454;6.718;2022-10-16T05:35:50;13.60;99.90
20560;DHT22;10438;51.454;6.718;2022-10-16T05:38:17;13.60;99.90
20560;DHT22;10438;51.454;6.718;2022-10-16T05:40:42;13.60;99.90
20560;DHT22;10438;51.454;6.718;2022-10-16T05:43:08;13.60;99.90
20560;DHT22;10438;51.454;6.718;2022-10-16T05:45:34;13.60;99.90
20560;DHT22;10438;51.454;6.718;2022-10-16T05:48:00;13.60;99.90
20560;DHT22;10438;51.454;6.718;2022-10-16T05:50:26;13.60;99.90
20560;DHT22;10438;51.454;6.718;2022-10-16T05:52:52;13.60;99.90
20560;DHT22;10438;51.454;6.718;2022-10-16T05:55:17;13.50;99.90
20560;DHT22;10438;51.454;6.718;2022-10-16T05:57:43;13.50;99.90
20560;DHT22;10438;51.454;6.718;2022-10-16T06:00:09;13.50;99.90
20560;DHT22;10438;51.454;6.718;2022-10-16T06:02:35;13.50;99.90
20560;DHT22;10438;51.454;6.718;2022-10-16T06:05:00;13.50;99.90
20560;DHT22;10438;51.454;6.718;2022-10-16T06:07:26;13.50;99.90
20560;DHT22;10438;51.454;6.718;2022-10-16T06:09:52;13.50;99.90
20560;DHT22;10438;51.454;6.718;2022-10-16T06:12:19;13.50;99.90
20560;DHT22;10438;51.454;6.718;2022-10-16T06:14:45;13.50;99.90
20560;DHT22;10438;51.454;6.718;2022-10-16T06:17:12;13.50;99.90
20560;DHT22;10438;51.454;6.718;2022-10-16T06:19:38;13.50;99.90
20560;DHT22;10438;51.454;6.718;2022-10-16T06:22:04;13.50;99.90
20560;DHT22;10438;51.454;6.718;2022-10-16T06:24:29;13.50;99.90
20560;DHT22;10438;51.454;6.718;2022-10-16T06:26:55;13.60;99.90
20560;DHT22;10438;51.454;6.718;2022-10-16T06:29:20;13.50;99.90
20560;DHT22;10438;51.454;6.718;2022-10-16T06:31:46;13.50;99.90
20560;DHT22;10438;51.454;6.718;2022-10-16T06:34:12;13.60;99.90
20560;DHT22;10438;51.454;6.718;2022-10-16T06:36:38;13.50;99.90
20560;DHT22;10438;51.454;6.718;2022-10-16T06:39:05;13.60;99.90
20560;DHT22;10438;51.454;6.718;2022-10-16T06:41:33;13.60;99.90
20560;DHT22;10438;51.454;6.718;2022-10-16T06:43:59;13.60;99.90
20560;DHT22;10438;51.454;6.718;2022-10-16T06:46:25;13.60;99.90
20560;DHT22;10438;51.454;6.718;2022-10-16T06:48:52;13.60;99.90
20560;DHT22;10438;51.454;6.718;2022-10-16T06:51:20;13.60;99.90
20560;DHT22;10438;51.454;6.718;2022-10-16T06:53:48;13.60;99.90
20560;DHT22;10438;51.454;6.718;2022-10-16T06:56:23;13.50;99.90
20560;DHT22;10438;51.454;6.718;2022-10-16T06:58:49;13.60;99.90
20560;DHT22;10438;51.454;6.718;2022-10-16T07:01:17;13.60;99.90
20560;DHT22;10438;51.454;6.718;2022-10-16T07:03:44;13.50;99.90
20560;DHT22;10438;51.454;6.718;2022-10-16T07:06:17;13.50;99.90
20560;DHT22;10438;51.454;6.718;2022-10-16T07:08:45;13.50;99.90
20560;DHT22;10438;51.454;6.718;2022-10-16T07:11:13;13.50;99.90
20560;DHT22;10438;51.454;6.718;2022-10-16T07:13:40;13.50;99.90
20560;DHT22;10438;51.454;6.718;2022-10-16T07:18:32;13.50;99.90
20560;DHT22;10438;51.454;6.718;2022-10-16T07:21:10;13.60;99.90
20560;DHT22;10438;51.454;6.718;2022-10-16T07:23:36;13.60;99.90
20560;DHT22;10438;51.454;6.718;2022-10-16T07:26:01;13.60;99.90
20560;DHT22;10438;51.454;6.718;2022-10-16T07:28:28;13.60;99.90
20560;DHT22;10438;51.454;6.718;2022-10-16T07:30:53;13.60;99.90
20560;DHT22;10438;51.454;6.718;2022-10-16T07:33:19;13.70;99.90
20560;DHT22;10438;51.454;6.718;2022-10-16T07:35:52;13.70;99.90
20560;DHT22;10438;51.454;6.718;2022-10-16T07:38:18;13.70;99.90
20560;DHT22;10438;51.454;6.718;2022-10-16T07:40:44;13.70;99.90
20560;DHT22;10438;51.454;6.718;2022-10-16T07:43:10;13.80;99.90
20560;DHT22;10438;51.454;6.718;2022-10-16T07:45:35;13.80;99.90
20560;DHT22;10438;51.454;6.718;2022-10-16T07:48:01;13.90;99.90
20560;DHT22;10438;51.454;6.718;2022-10-16T07:50:26;14.00;99.90
20560;DHT22;10438;51.454;6.718;2022-10-16T07:52:52;14.10;99.90
20560;DHT22;10438;51.454;6.718;2022-10-16T07:55:17;14.20;99.90
20560;DHT22;10438;51.454;6.718;2022-10-16T07:57:43;14.20;99.90
20560;DHT22;10438;51.454;6.718;2022-10-16T08:00:09;14.30;99.90
20560;DHT22;10438;51.454;6.718;2022-10-16T08:02:39;14.40;99.90
20560;DHT22;10438;51.454;6.718;2022-10-16T08:05:05;14.40;99.90
20560;DHT22;10438;51.454;6.718;2022-10-16T08:07:31;14.50;99.90
20560;DHT22;10438;51.454;6.718;2022-10-16T08:09:56;14.60;99.90
20560;DHT22;10438;51.454;6.718;2022-10-16T08:12:23;14.70;99.90
20560;DHT22;10438;51.454;6.718;2022-10-16T08:14:49;14.70;99.90
20560;DHT22;10438;51.454;6.718;2022-10-16T08:17:15;14.80;99.90
20560;DHT22;10438;51.454;6.718;2022-10-16T08:19:44;14.90;99.90
20560;DHT22;10438;51.454;6.718;2022-10-16T08:22:10;15.00;99.90
20560;DHT22;10438;51.454;6.718;2022-10-16T08:24:35;15.00;99.90
20560;DHT22;10438;51.454;6.718;2022-10-16T08:27:02;15.00;99.90
20560;DHT22;10438;51.454;6.718;2022-10-16T08:29:28;15.00;99.90
20560;DHT22;10438;51.454;6.718;2022-10-16T08:31:53;15.00;99.90
20560;DHT22;10438;51.454;6.718;2022-10-16T08:34:19;15.10;99.90
20560;DHT22;10438;51.454;6.718;2022-10-16T08:36:45;15.20;99.90
20560;DHT22;10438;51.454;6.718;2022-10-16T08:39:10;15.20;99.90
20560;DHT22;10438;51.454;6.718;2022-10-16T08:42:04;15.30;99.90
20560;DHT22;10438;51.454;6.718;2022-10-16T08:47:38;15.70;99.90
20560;DHT22;10438;51.454;6.718;2022-10-16T08:50:13;15.80;99.90
20560;DHT22;10438;51.454;6.718;2022-10-16T08:52:44;15.90;99.90
20560;DHT22;10438;51.454;6.718;2022-10-16T08:55:41;16.00;99.90
20560;DHT22;10438;51.454;6.718;2022-10-16T08:58:16;16.10;99.90
20560;DHT22;10438;51.454;6.718;2022-10-16T09:00:44;16.20;99.90
20560;DHT22;10438;51.454;6.718;2022-10-16T09:12:20;16.80;99.90
20560;DHT22;10438;51.454;6.718;2022-10-16T09:23:15;17.50;99.90
20560;DHT22;10438;51.454;6.718;2022-10-16T09:25:47;17.60;99.90
20560;DHT22;10438;51.454;6.718;2022-10-16T09:28:13;17.50;99.90
20560;DHT22;10438;51.454;6.718;2022-10-16T09:30:40;17.50;99.90
20560;DHT22;10438;51.454;6.718;2022-10-16T09:33:06;17.50;99.90
20560;DHT22;10438;51.454;6.718;2022-10-16T09:35:44;17.60;99.90
20560;DHT22;10438;51.454;6.718;2022-10-16T09:38:27;17.70;99.90
20560;DHT22;10438;51.454;6.718;2022-10-16T09:40:54;17.70;99.90
20560;DHT22;10438;51.454;6.718;2022-10-16T09:43:33;17.90;99.90
20560;DHT22;10438;51.454;6.718;2022-10-16T09:46:04;18.30;99.90
20560;DHT22;10438;51.454;6.718;2022-10-16T09:48:38;18.60;99.90
20560;DHT22;10438;51.454;6.718;2022-10-16T09:51:06;18.90;99.90
20560;DHT22;10438;51.454;6.718;2022-10-16T09:53:40;19.20;99.90
20560;DHT22;10438;51.454;6.718;2022-10-16T09:56:06;19.30;99.90
20560;DHT22;10438;51.454;6.718;2022-10-16T09:58:33;19.30;99.90
20560;DHT22;10438;51.454;6.718;2022-10-16T10:00:59;19.30;99.90
20560;DHT22;10438;51.454;6.718;2022-10-16T10:03:37;19.70;99.90
20560;DHT22;10438;51.454;6.718;2022-10-16T10:06:23;19.80;99.90
20560;DHT22;10438;51.454;6.718;2022-10-16T10:08:57;20.20;99.90
20560;DHT22;10438;51.454;6.718;2022-10-16T10:14:31;20.40;99.90
20560;DHT22;10438;51.454;6.718;2022-10-16T10:19:37;20.50;99.90
20560;DHT22;10438;51.454;6.718;2022-10-16T10:22:16;20.30;99.90
20560;DHT22;10438;51.454;6.718;2022-10-16T10:24:44;20.10;99.90
20560;DHT22;10438;51.454;6.718;2022-10-16T10:27:15;19.90;99.90
20560;DHT22;10438;51.454;6.718;2022-10-16T10:29:53;20.30;99.90
20560;DHT22;10438;51.454;6.718;2022-10-16T10:40:56;20.60;99.90
20560;DHT22;10438;51.454;6.718;2022-10-16T10:44:04;20.60;99.90
20560;DHT22;10438;51.454;6.718;2022-10-16T10:55:06;21.10;99.90
20560;DHT22;10438;51.454;6.718;2022-10-16T11:03:35;21.80;99.90
20560;DHT22;10438;51.454;6.718;2022-10-16T11:06:19;21.60;99.90
20560;DHT22;10438;51.454;6.718;2022-10-16T11:09:20;20.80;99.90
20560;DHT22;10438;51.454;6.718;2022-10-16T11:11:57;20.50;99.90
20560;DHT22;10438;51.454;6.718;2022-10-16T11:14:28;20.30;99.90
20560;DHT22;10438;51.454;6.718;2022-10-16T11:17:13;20.40;99.90
20560;DHT22;10438;51.454;6.718;2022-10-16T11:22:36;20.70;99.90
20560;DHT22;10438;51.454;6.718;2022-10-16T11:25:14;20.80;99.90
20560;DHT22;10438;51.454;6.718;2022-10-16T11:28:01;21.20;99.90
20560;DHT22;10438;51.454;6.718;2022-10-16T11:30:30;20.70;99.90
20560;DHT22;10438;51.454;6.718;2022-10-16T11:35:53;20.00;99.90
20560;DHT22;10438;51.454;6.718;2022-10-16T11:38:48;19.40;99.90
20560;DHT22;10438;51.454;6.718;2022-10-16T11:41:29;19.30;99.90
20560;DHT22;10438;51.454;6.718;2022-10-16T11:44:13;19.50;99.90
20560;DHT22;10438;51.454;6.718;2022-10-16T11:46:43;19.70;99.90
20560;DHT22;10438;51.454;6.718;2022-10-16T11:49:18;19.30;99.90
20560;DHT22;10438;51.454;6.718;2022-10-16T11:51:59;19.40;99.90
20560;DHT22;10438;51.454;6.718;2022-10-16T11:57:14;20.20;99.90
20560;DHT22;10438;51.454;6.718;2022-10-16T12:03:01;19.90;99.90
20560;DHT22;10438;51.454;6.718;2022-10-16T12:05:47;20.40;99.90
20560;DHT22;10438;51.454;6.718;2022-10-16T12:08:17;20.80;99.90
20560;DHT22;10438;51.454;6.718;2022-10-16T12:10:45;21.10;99.90
20560;DHT22;10438;51.454;6.718;2022-10-16T12:13:37;21.40;99.90
20560;DHT22;10438;51.454;6.718;2022-10-16T12:18:41;21.60;99.90
20560;DHT22;10438;51.454;6.718;2022-10-16T12:21:07;21.70;99.90
20560;DHT22;10438;51.454;6.718;2022-10-16T12:23:37;21.20;99.90
20560;DHT22;10438;51.454;6.718;2022-10-16T12:26:04;21.40;99.90
20560;DHT22;10438;51.454;6.718;2022-10-16T12:28:32;21.60;99.90
20560;DHT22;10438;51.454;6.718;2022-10-16T12:31:07;21.30;99.90
20560;DHT22;10438;51.454;6.718;2022-10-16T12:33:42;20.80;99.90
20560;DHT22;10438;51.454;6.718;2022-10-16T12:36:26;20.60;99.90
20560;DHT22;10438;51.454;6.718;2022-10-16T12:38:53;20.60;99.90
20560;DHT22;10438;51.454;6.718;2022-10-16T12:43:50;20.70;99.90
20560;DHT22;10438;51.454;6.718;2022-10-16T12:48:43;20.70;99.90
20560;DHT22;10438;51.454;6.718;2022-10-16T12:51:36;20.50;99.90
20560;DHT22;10438;51.454;6.718;2022-10-16T12:59:09;20.60;99.90
20560;DHT22;10438;51.454;6.718;2022-10-16T13:04:44;21.40;99.90
20560;DHT22;10438;51.454;6.718;2022-10-16T13:15:37;21.60;99.90
20560;DHT22;10438;51.454;6.718;2022-10-16T13:18:15;21.80;99.90
20560;DHT22;10438;51.454;6.718;2022-10-16T13:20:56;21.90;99.30
20560;DHT22;10438;51.454;6.718;2022-10-16T13:28:46;21.50;99.90
20560;DHT22;10438;51.454;6.718;2022-10-16T13:31:20;21.00;99.90
20560;DHT22;10438;51.454;6.718;2022-10-16T13:33:55;20.60;99.90
20560;DHT22;10438;51.454;6.718;2022-10-16T13:36:23;20.40;99.90
20560;DHT22;10438;51.454;6.718;2022-10-16T13:38:57;20.10;99.90
20560;DHT22;10438;51.454;6.718;2022-10-16T13:41:25;19.90;99.90
20560;DHT22;10438;51.454;6.718;2022-10-16T13:43:52;19.80;99.90
20560;DHT22;10438;51.454;6.718;2022-10-16T13:46:20;19.80;99.90
20560;DHT22;10438;51.454;6.718;2022-10-16T13:49:03;19.80;99.90
20560;DHT22;10438;51.454;6.718;2022-10-16T13:51:30;19.80;99.90
20560;DHT22;10438;51.454;6.718;2022-10-16T13:53:57;19.70;99.90
20560;DHT22;10438;51.454;6.718;2022-10-16T13:56:26;19.80;99.90
20560;DHT22;10438;51.454;6.718;2022-10-16T13:59:20;19.80;99.90
20560;DHT22;10438;51.454;6.718;2022-10-16T14:01:47;19.80;99.90
20560;DHT22;10438;51.454;6.718;2022-10-16T14:04:13;19.80;99.90
20560;DHT22;10438;51.454;6.718;2022-10-16T14:06:45;19.90;99.90
20560;DHT22;10438;51.454;6.718;2022-10-16T14:09:26;19.80;99.90
20560;DHT22;10438;51.454;6.718;2022-10-16T14:11:59;19.70;99.90
20560;DHT22;10438;51.454;6.718;2022-10-16T14:14:27;19.60;99.90
20560;DHT22;10438;51.454;6.718;2022-10-16T14:16:58;19.50;99.90
20560;DHT22;10438;51.454;6.718;2022-10-16T14:19:28;19.40;99.90
20560;DHT22;10438;51.454;6.718;2022-10-16T14:21:54;19.30;99.90
20560;DHT22;10438;51.454;6.718;2022-10-16T14:24:32;19.30;99.90
20560;DHT22;10438;51.454;6.718;2022-10-16T14:26:59;19.20;99.90
20560;DHT22;10438;51.454;6.718;2022-10-16T14:29:27;19.10;99.90
20560;DHT22;10438;51.454;6.718;2022-10-16T14:31:58;19.00;99.90
20560;DHT22;10438;51.454;6.718;2022-10-16T14:34:31;19.10;99.90
20560;DHT22;10438;51.454;6.718;2022-10-16T14:37:13;19.10;99.90
20560;DHT22;10438;51.454;6.718;2022-10-16T14:39:40;19.10;99.90
20560;DHT22;10438;51.454;6.718;2022-10-16T14:42:14;19.10;99.90
20560;DHT22;10438;51.454;6.718;2022-10-16T14:44:41;19.00;99.90
20560;DHT22;10438;51.454;6.718;2022-10-16T14:47:16;19.00;99.90
20560;DHT22;10438;51.454;6.718;2022-10-16T14:49:47;18.90;99.90
20560;DHT22;10438;51.454;6.718;2022-10-16T14:52:13;18.90;99.90
20560;DHT22;10438;51.454;6.718;2022-10-16T14:54:38;18.90;99.90
20560;DHT22;10438;51.454;6.718;2022-10-16T14:57:04;18.90;99.90
20560;DHT22;10438;51.454;6.718;2022-10-16T14:59:36;18.90;99.90
20560;DHT22;10438;51.454;6.718;2022-10-16T15:02:29;18.90;99.90
20560;DHT22;10438;51.454;6.718;2022-10-16T15:04:56;18.90;99.90
20560;DHT22;10438;51.454;6.718;2022-10-16T15:07:22;18.80;99.90
20560;DHT22;10438;51.454;6.718;2022-10-16T15:09:47;18.70;99.90
20560;DHT22;10438;51.454;6.718;2022-10-16T15:12:13;18.70;99.90
20560;DHT22;10438;51.454;6.718;2022-10-16T15:14:39;18.60;99.90
20560;DHT22;10438;51.454;6.718;2022-10-16T15:17:04;18.60;99.90
20560;DHT22;10438;51.454;6.718;2022-10-16T15:19:30;18.50;99.90
20560;DHT22;10438;51.454;6.718;2022-10-16T15:21:56;18.50;99.90
20560;DHT22;10438;51.454;6.718;2022-10-16T15:24:21;18.40;99.90
20560;DHT22;10438;51.454;6.718;2022-10-16T15:26:47;18.40;99.90
20560;DHT22;10438;51.454;6.718;2022-10-16T15:29:14;18.30;99.90
20560;DHT22;10438;51.454;6.718;2022-10-16T15:31:39;18.30;99.90
20560;DHT22;10438;51.454;6.718;2022-10-16T15:34:08;18.20;99.90
20560;DHT22;10438;51.454;6.718;2022-10-16T15:36:36;18.20;99.90
20560;DHT22;10438;51.454;6.718;2022-10-16T15:39:13;18.10;99.90
20560;DHT22;10438;51.454;6.718;2022-10-16T15:41:40;18.00;99.90
20560;DHT22;10438;51.454;6.718;2022-10-16T15:44:05;18.00;99.90
20560;DHT22;10438;51.454;6.718;2022-10-16T15:46:31;17.90;99.90
20560;DHT22;10438;51.454;6.718;2022-10-16T15:48:59;17.90;99.90
20560;DHT22;10438;51.454;6.718;2022-10-16T15:51:25;17.80;99.90
20560;DHT22;10438;51.454;6.718;2022-10-16T15:53:52;17.70;99.90
20560;DHT22;10438;51.454;6.718;2022-10-16T15:56:19;17.60;99.90
20560;DHT22;10438;51.454;6.718;2022-10-16T15:58:44;17.60;99.90
20560;DHT22;10438;51.454;6.718;2022-10-16T16:01:10;17.60;99.90
20560;DHT22;10438;51.454;6.718;2022-10-16T16:03:37;17.60;99.90
20560;DHT22;10438;51.454;6.718;2022-10-16T16:06:07;17.50;99.90
20560;DHT22;10438;51.454;6.718;2022-10-16T16:08:33;17.50;99.90
20560;DHT22;10438;51.454;6.718;2022-10-16T16:11:04;17.50;99.90
20560;DHT22;10438;51.454;6.718;2022-10-16T16:13:29;17.40;99.90
20560;DHT22;10438;51.454;6.718;2022-10-16T16:15:55;17.30;99.90
20560;DHT22;10438;51.454;6.718;2022-10-16T16:18:21;17.30;99.90
20560;DHT22;10438;51.454;6.718;2022-10-16T16:20:46;17.20;99.90
20560;DHT22;10438;51.454;6.718;2022-10-16T16:23:12;17.10;99.90
20560;DHT22;10438;51.454;6.718;2022-10-16T16:25:38;17.00;99.90
20560;DHT22;10438;51.454;6.718;2022-10-16T16:28:03;17.00;99.90
20560;DHT22;10438;51.454;6.718;2022-10-16T16:30:29;16.90;99.90
20560;DHT22;10438;51.454;6.718;2022-10-16T16:32:54;16.80;99.90
20560;DHT22;10438;51.454;6.718;2022-10-16T16:35:19;16.80;99.90
20560;DHT22;10438;51.454;6.718;2022-10-16T16:37:47;16.70;99.90
20560;DHT22;10438;51.454;6.718;2022-10-16T16:40:12;16.60;99.90
20560;DHT22;10438;51.454;6.718;2022-10-16T16:42:38;16.60;99.90
20560;DHT22;10438;51.454;6.718;2022-10-16T16:45:04;16.60;99.90
20560;DHT22;10438;51.454;6.718;2022-10-16T16:47:30;16.50;99.90
20560;DHT22;10438;51.454;6.718;2022-10-16T16:49:56;16.50;99.90
20560;DHT22;10438;51.454;6.718;2022-10-16T16:52:21;16.50;99.90
20560;DHT22;10438;51.454;6.718;2022-10-16T16:54:48;16.50;99.90
20560;DHT22;10438;51.454;6.718;2022-10-16T16:57:18;16.50;99.90
20560;DHT22;10438;51.454;6.718;2022-10-16T16:59:43;16.40;99.90
20560;DHT22;10438;51.454;6.718;2022-10-16T17:02:09;16.30;99.90
20560;DHT22;10438;51.454;6.718;2022-10-16T17:04:34;16.30;99.90
20560;DHT22;10438;51.454;6.718;2022-10-16T17:07:00;16.30;99.90
20560;DHT22;10438;51.454;6.718;2022-10-16T17:09:26;16.20;99.90
20560;DHT22;10438;51.454;6.718;2022-10-16T17:11:51;16.20;99.90
20560;DHT22;10438;51.454;6.718;2022-10-16T17:14:17;16.10;99.90
20560;DHT22;10438;51.454;6.718;2022-10-16T17:16:42;16.10;99.90
20560;DHT22;10438;51.454;6.718;2022-10-16T17:19:15;16.10;99.90